sensor_id;sensor_type;location;lat;lon;timestamp;P1;durP1;ratioP1;P2;durP2;ratioP2
11125;SDS011;5617;54.046;10.676;2024-03-23T00:52:48;12.83;;;3.27;;
11125;SDS011;5617;54.046;10.676;2024-03-23T00:54:56;10.83;;;2.60;;
11125;SDS011;5617;54.046;10.676;2024-03-23T00:57:05;13.33;;;3.23;;
11125;SDS011;5617;54.046;10.676;2024-03-23T00:59:14;13.27;;;2.70;;
11125;SDS011;5617;54.046;10.676;2024-03-23T01:01:21;14.37;;;2.93;;
11125;SDS011;5617;54.046;10.676;2024-03-23T01:03:29;17.03;;;2.77;;
11125;SDS011;5617;54.046;10.676;2024-03-23T01:05:36;15.93;;;3.60;;
11125;SDS011;5617;54.046;10.676;2024-03-23T01:07:47;13.57;;;3.07;;
11125;SDS011;5617;54.046;10.676;2024-03-23T01:09:56;13.60;;;2.90;;
11125;SDS011;5617;54.046;10.676;2024-03-23T01:12:07;11.93;;;3.27;;
11125;SDS011;5617;54.046;10.676;2024-03-23T01:14:14;10.63;;;2.60;;
11125;SDS011;5617;54.046;10.676;2024-03-23T01:16:22;13.30;;;3.30;;
11125;SDS011;5617;54.046;10.676;2024-03-23T01:18:29;13.57;;;3.23;;
11125;SDS011;5617;54.046;10.676;2024-03-23T01:20:39;14.17;;;2.90;;
11125;SDS011;5617;54.046;10.676;2024-03-23T01:22:46;11.57;;;2.53;;
11125;SDS011;5617;54.046;10.676;2024-03-23T01:24:55;16.80;;;3.90;;
11125;SDS011;5617;54.046;10.676;2024-03-23T01:27:13;11.87;;;3.20;;
11125;SDS011;5617;54.046;10.676;2024-03-23T01:29:21;14.83;;;3.43;;
11125;SDS011;5617;54.046;10.676;2024-03-23T01:31:28;13.80;;;3.40;;
11125;SDS011;5617;54.046;10.676;2024-03-23T01:33:36;12.80;;;2.87;;
11125;SDS011;5617;54.046;10.676;2024-03-23T01:35:43;14.00;;;3.13;;
11125;SDS011;5617;54.046;10.676;2024-03-23T01:37:51;14.60;;;3.17;;
11125;SDS011;5617;54.046;10.676;2024-03-23T01:40:00;9.67;;;2.60;;
11125;SDS011;5617;54.046;10.676;2024-03-23T01:42:11;14.80;;;3.17;;
11125;SDS011;5617;54.046;10.676;2024-03-23T01:44:20;17.50;;;3.60;;
11125;SDS011;5617;54.046;10.676;2024-03-23T01:46:29;16.50;;;3.07;;
11125;SDS011;5617;54.046;10.676;2024-03-23T01:48:36;16.93;;;3.60;;
11125;SDS011;5617;54.046;10.676;2024-03-23T01:50:44;13.37;;;2.80;;
11125;SDS011;5617;54.046;10.676;2024-03-23T01:52:51;13.67;;;3.20;;
11125;SDS011;5617;54.046;10.676;2024-03-23T01:55:00;18.13;;;3.67;;
11125;SDS011;5617;54.046;10.676;2024-03-23T01:57:08;12.20;;;3.17;;
11125;SDS011;5617;54.046;10.676;2024-03-23T01:59:17;13.93;;;3.20;;
11125;SDS011;5617;54.046;10.676;2024-03-23T02:01:24;11.00;;;3.03;;
11125;SDS011;5617;54.046;10.676;2024-03-23T02:03:32;17.93;;;3.93;;
11125;SDS011;5617;54.046;10.676;2024-03-23T02:05:39;13.57;;;2.70;;
11125;SDS011;5617;54.046;10.676;2024-03-23T02:07:48;15.10;;;3.00;;
11125;SDS011;5617;54.046;10.676;2024-03-23T02:09:58;15.07;;;3.37;;
11125;SDS011;5617;54.046;10.676;2024-03-23T02:12:07;10.87;;;2.93;;
11125;SDS011;5617;54.046;10.676;2024-03-23T02:14:15;15.93;;;2.97;;
11125;SDS011;5617;54.046;10.676;2024-03-23T02:16:26;11.63;;;2.70;;
11125;SDS011;5617;54.046;10.676;2024-03-23T02:18:33;15.50;;;4.37;;
11125;SDS011;5617;54.046;10.676;2024-03-23T02:20:41;13.27;;;2.97;;
11125;SDS011;5617;54.046;10.676;2024-03-23T02:22:51;18.20;;;3.37;;
11125;SDS011;5617;54.046;10.676;2024-03-23T02:24:59;13.93;;;2.83;;
11125;SDS011;5617;54.046;10.676;2024-03-23T02:27:09;13.53;;;2.90;;
11125;SDS011;5617;54.046;10.676;2024-03-23T02:29:19;15.43;;;3.30;;
11125;SDS011;5617;54.046;10.676;2024-03-23T02:31:26;14.67;;;3.00;;
11125;SDS011;5617;54.046;10.676;2024-03-23T02:33:35;16.37;;;3.40;;
11125;SDS011;5617;54.046;10.676;2024-03-23T02:35:45;12.77;;;3.00;;
11125;SDS011;5617;54.046;10.676;2024-03-23T02:37:54;16.30;;;3.63;;
11125;SDS011;5617;54.046;10.676;2024-03-23T02:40:05;16.50;;;3.03;;
11125;SDS011;5617;54.046;10.676;2024-03-23T02:42:17;13.73;;;2.83;;
11125;SDS011;5617;54.046;10.676;2024-03-23T02:44:25;14.43;;;3.23;;
11125;SDS011;5617;54.046;10.676;2024-03-23T02:46:37;15.00;;;2.67;;
11125;SDS011;5617;54.046;10.676;2024-03-23T02:48:44;16.83;;;3.00;;
11125;SDS011;5617;54.046;10.676;2024-03-23T02:50:55;15.00;;;2.93;;
11125;SDS011;5617;54.046;10.676;2024-03-23T02:53:04;16.20;;;2.70;;
11125;SDS011;5617;54.046;10.676;2024-03-23T02:55:12;12.47;;;2.60;;
11125;SDS011;5617;54.046;10.676;2024-03-23T02:57:19;11.73;;;3.87;;
11125;SDS011;5617;54.046;10.676;2024-03-23T02:59:27;16.23;;;3.53;;
11125;SDS011;5617;54.046;10.676;2024-03-23T03:01:34;13.30;;;3.47;;
11125;SDS011;5617;54.046;10.676;2024-03-23T03:03:43;16.03;;;3.73;;
11125;SDS011;5617;54.046;10.676;2024-03-23T03:05:54;12.33;;;2.80;;
11125;SDS011;5617;54.046;10.676;2024-03-23T03:08:05;15.30;;;3.17;;
11125;SDS011;5617;54.046;10.676;2024-03-23T03:10:12;11.47;;;3.30;;
11125;SDS011;5617;54.046;10.676;2024-03-23T03:12:19;18.67;;;3.67;;
11125;SDS011;5617;54.046;10.676;2024-03-23T03:14:27;11.50;;;2.60;;
11125;SDS011;5617;54.046;10.676;2024-03-23T03:16:34;11.63;;;3.10;;
11125;SDS011;5617;54.046;10.676;2024-03-23T03:18:42;14.57;;;3.10;;
11125;SDS011;5617;54.046;10.676;2024-03-23T03:20:50;12.33;;;3.20;;
11125;SDS011;5617;54.046;10.676;2024-03-23T03:23:01;8.53;;;2.80;;
11125;SDS011;5617;54.046;10.676;2024-03-23T03:25:09;11.03;;;2.90;;
11125;SDS011;5617;54.046;10.676;2024-03-23T03:27:20;16.43;;;3.00;;
11125;SDS011;5617;54.046;10.676;2024-03-23T03:29:31;16.30;;;3.07;;
11125;SDS011;5617;54.046;10.676;2024-03-23T03:31:45;11.57;;;2.73;;
11125;SDS011;5617;54.046;10.676;2024-03-23T03:33:52;11.57;;;2.77;;
11125;SDS011;5617;54.046;10.676;2024-03-23T03:36:00;13.67;;;3.13;;
11125;SDS011;5617;54.046;10.676;2024-03-23T03:38:08;17.93;;;3.40;;
11125;SDS011;5617;54.046;10.676;2024-03-23T03:40:18;11.13;;;2.73;;
11125;SDS011;5617;54.046;10.676;2024-03-23T03:42:25;10.37;;;2.67;;
11125;SDS011;5617;54.046;10.676;2024-03-23T03:44:33;15.07;;;3.67;;
11125;SDS011;5617;54.046;10.676;2024-03-23T03:46:40;15.33;;;3.07;;
11125;SDS011;5617;54.046;10.676;2024-03-23T03:48:51;14.37;;;3.67;;
11125;SDS011;5617;54.046;10.676;2024-03-23T03:51:04;13.80;;;3.17;;
11125;SDS011;5617;54.046;10.676;2024-03-23T03:53:12;10.97;;;2.90;;
11125;SDS011;5617;54.046;10.676;2024-03-23T03:55:20;12.23;;;3.10;;
11125;SDS011;5617;54.046;10.676;2024-03-23T03:57:28;12.93;;;3.00;;
11125;SDS011;5617;54.046;10.676;2024-03-23T03:59:35;11.07;;;3.40;;
11125;SDS011;5617;54.046;10.676;2024-03-23T04:01:45;12.13;;;3.73;;
11125;SDS011;5617;54.046;10.676;2024-03-23T04:03:58;20.13;;;4.17;;
11125;SDS011;5617;54.046;10.676;2024-03-23T04:06:06;16.30;;;3.97;;
11125;SDS011;5617;54.046;10.676;2024-03-23T04:08:16;17.60;;;4.37;;
11125;SDS011;5617;54.046;10.676;2024-03-23T04:10:29;15.00;;;3.57;;
11125;SDS011;5617;54.046;10.676;2024-03-23T04:12:39;10.63;;;3.60;;
11125;SDS011;5617;54.046;10.676;2024-03-23T04:14:47;15.73;;;3.87;;
11125;SDS011;5617;54.046;10.676;2024-03-23T04:16:54;15.37;;;4.20;;
11125;SDS011;5617;54.046;10.676;2024-03-23T04:19:03;13.73;;;3.97;;
11125;SDS011;5617;54.046;10.676;2024-03-23T04:21:10;12.97;;;3.03;;
11125;SDS011;5617;54.046;10.676;2024-03-23T04:23:18;19.80;;;3.63;;
11125;SDS011;5617;54.046;10.676;2024-03-23T04:25:27;18.13;;;4.00;;
11125;SDS011;5617;54.046;10.676;2024-03-23T04:27:38;17.93;;;4.00;;
11125;SDS011;5617;54.046;10.676;2024-03-23T04:29:51;13.73;;;3.40;;
11125;SDS011;5617;54.046;10.676;2024-03-23T04:32:00;15.93;;;3.23;;
11125;SDS011;5617;54.046;10.676;2024-03-23T04:34:08;13.37;;;3.10;;
11125;SDS011;5617;54.046;10.676;2024-03-23T04:36:16;16.00;;;2.93;;
11125;SDS011;5617;54.046;10.676;2024-03-23T04:38:23;17.27;;;3.27;;
11125;SDS011;5617;54.046;10.676;2024-03-23T04:40:33;15.93;;;3.20;;
11125;SDS011;5617;54.046;10.676;2024-03-23T04:42:41;17.23;;;3.20;;
11125;SDS011;5617;54.046;10.676;2024-03-23T04:44:52;13.03;;;2.90;;
11125;SDS011;5617;54.046;10.676;2024-03-23T04:47:00;13.53;;;3.10;;
11125;SDS011;5617;54.046;10.676;2024-03-23T04:49:08;14.43;;;3.07;;
11125;SDS011;5617;54.046;10.676;2024-03-23T04:51:25;14.87;;;3.40;;
11125;SDS011;5617;54.046;10.676;2024-03-23T04:53:38;14.10;;;2.97;;
11125;SDS011;5617;54.046;10.676;2024-03-23T04:55:48;14.93;;;3.00;;
11125;SDS011;5617;54.046;10.676;2024-03-23T04:57:55;17.30;;;3.53;;
11125;SDS011;5617;54.046;10.676;2024-03-23T05:00:03;16.33;;;3.57;;
11125;SDS011;5617;54.046;10.676;2024-03-23T05:02:21;17.70;;;3.67;;
11125;SDS011;5617;54.046;10.676;2024-03-23T05:04:29;10.73;;;3.37;;
11125;SDS011;5617;54.046;10.676;2024-03-23T05:06:36;14.70;;;3.53;;
11125;SDS011;5617;54.046;10.676;2024-03-23T05:08:45;15.43;;;3.77;;
11125;SDS011;5617;54.046;10.676;2024-03-23T05:10:53;17.67;;;3.63;;
11125;SDS011;5617;54.046;10.676;2024-03-23T05:13:04;12.93;;;3.17;;
11125;SDS011;5617;54.046;10.676;2024-03-23T05:15:11;18.90;;;3.47;;
11125;SDS011;5617;54.046;10.676;2024-03-23T05:17:32;18.17;;;3.00;;
11125;SDS011;5617;54.046;10.676;2024-03-23T05:19:40;12.33;;;3.23;;
11125;SDS011;5617;54.046;10.676;2024-03-23T05:21:48;12.33;;;2.97;;
11125;SDS011;5617;54.046;10.676;2024-03-23T05:23:57;9.53;;;3.37;;
11125;SDS011;5617;54.046;10.676;2024-03-23T05:26:07;14.23;;;3.10;;
11125;SDS011;5617;54.046;10.676;2024-03-23T05:28:18;18.90;;;3.53;;
11125;SDS011;5617;54.046;10.676;2024-03-23T05:30:30;13.97;;;3.43;;
11125;SDS011;5617;54.046;10.676;2024-03-23T05:32:56;16.97;;;3.20;;
11125;SDS011;5617;54.046;10.676;2024-03-23T05:35:09;18.67;;;3.40;;
11125;SDS011;5617;54.046;10.676;2024-03-23T05:37:20;15.87;;;3.73;;
11125;SDS011;5617;54.046;10.676;2024-03-23T05:39:28;11.17;;;2.87;;
11125;SDS011;5617;54.046;10.676;2024-03-23T05:41:36;17.20;;;3.70;;
11125;SDS011;5617;54.046;10.676;2024-03-23T05:43:44;15.80;;;3.90;;
11125;SDS011;5617;54.046;10.676;2024-03-23T05:45:55;14.30;;;3.43;;
11125;SDS011;5617;54.046;10.676;2024-03-23T05:48:03;21.13;;;3.93;;
11125;SDS011;5617;54.046;10.676;2024-03-23T05:50:11;17.33;;;4.13;;
11125;SDS011;5617;54.046;10.676;2024-03-23T05:52:19;18.30;;;4.03;;
11125;SDS011;5617;54.046;10.676;2024-03-23T05:54:27;12.27;;;3.23;;
11125;SDS011;5617;54.046;10.676;2024-03-23T05:56:36;15.70;;;3.70;;
11125;SDS011;5617;54.046;10.676;2024-03-23T05:58:43;15.23;;;3.00;;
11125;SDS011;5617;54.046;10.676;2024-03-23T06:00:56;16.67;;;3.40;;
11125;SDS011;5617;54.046;10.676;2024-03-23T06:03:04;13.60;;;3.17;;
11125;SDS011;5617;54.046;10.676;2024-03-23T06:05:12;18.43;;;4.17;;
11125;SDS011;5617;54.046;10.676;2024-03-23T06:07:20;12.97;;;3.60;;
11125;SDS011;5617;54.046;10.676;2024-03-23T06:09:31;16.23;;;4.10;;
11125;SDS011;5617;54.046;10.676;2024-03-23T06:11:40;18.27;;;3.50;;
11125;SDS011;5617;54.046;10.676;2024-03-23T06:13:51;17.23;;;3.73;;
11125;SDS011;5617;54.046;10.676;2024-03-23T06:16:05;15.93;;;3.83;;
11125;SDS011;5617;54.046;10.676;2024-03-23T06:18:14;16.33;;;3.57;;
11125;SDS011;5617;54.046;10.676;2024-03-23T06:20:22;16.57;;;3.37;;
11125;SDS011;5617;54.046;10.676;2024-03-23T06:22:48;12.57;;;3.40;;
11125;SDS011;5617;54.046;10.676;2024-03-23T06:24:55;17.57;;;3.67;;
11125;SDS011;5617;54.046;10.676;2024-03-23T06:27:12;16.67;;;3.90;;
11125;SDS011;5617;54.046;10.676;2024-03-23T06:29:19;15.03;;;3.77;;
11125;SDS011;5617;54.046;10.676;2024-03-23T06:31:29;14.80;;;3.83;;
11125;SDS011;5617;54.046;10.676;2024-03-23T06:33:36;16.33;;;3.33;;
11125;SDS011;5617;54.046;10.676;2024-03-23T06:35:49;16.30;;;3.80;;
11125;SDS011;5617;54.046;10.676;2024-03-23T06:37:57;15.87;;;3.37;;
11125;SDS011;5617;54.046;10.676;2024-03-23T06:40:06;21.30;;;3.80;;
11125;SDS011;5617;54.046;10.676;2024-03-23T06:42:17;14.93;;;4.10;;
11125;SDS011;5617;54.046;10.676;2024-03-23T06:44:25;12.97;;;3.77;;
11125;SDS011;5617;54.046;10.676;2024-03-23T06:46:32;15.77;;;3.57;;
11125;SDS011;5617;54.046;10.676;2024-03-23T06:48:41;13.87;;;3.83;;
11125;SDS011;5617;54.046;10.676;2024-03-23T06:50:48;15.13;;;2.93;;
11125;SDS011;5617;54.046;10.676;2024-03-23T06:52:56;11.93;;;3.80;;
11125;SDS011;5617;54.046;10.676;2024-03-23T06:55:04;15.23;;;3.73;;
11125;SDS011;5617;54.046;10.676;2024-03-23T06:57:12;14.73;;;3.63;;
11125;SDS011;5617;54.046;10.676;2024-03-23T06:59:21;18.10;;;4.07;;
11125;SDS011;5617;54.046;10.676;2024-03-23T07:01:29;16.50;;;3.90;;
11125;SDS011;5617;54.046;10.676;2024-03-23T07:03:36;15.90;;;4.20;;
11125;SDS011;5617;54.046;10.676;2024-03-23T07:05:44;10.83;;;3.53;;
11125;SDS011;5617;54.046;10.676;2024-03-23T07:07:55;12.90;;;3.90;;
11125;SDS011;5617;54.046;10.676;2024-03-23T07:10:14;14.33;;;4.27;;
11125;SDS011;5617;54.046;10.676;2024-03-23T07:12:22;8.17;;;3.03;;
11125;SDS011;5617;54.046;10.676;2024-03-23T07:14:31;13.00;;;3.73;;
11125;SDS011;5617;54.046;10.676;2024-03-23T07:16:39;13.83;;;3.83;;
11125;SDS011;5617;54.046;10.676;2024-03-23T07:18:46;11.73;;;3.67;;
11125;SDS011;5617;54.046;10.676;2024-03-23T07:20:57;17.60;;;4.63;;
11125;SDS011;5617;54.046;10.676;2024-03-23T07:23:05;13.60;;;4.03;;
11125;SDS011;5617;54.046;10.676;2024-03-23T07:25:15;10.53;;;3.40;;
11125;SDS011;5617;54.046;10.676;2024-03-23T07:27:22;13.50;;;3.40;;
11125;SDS011;5617;54.046;10.676;2024-03-23T07:29:33;15.30;;;4.47;;
11125;SDS011;5617;54.046;10.676;2024-03-23T07:31:40;15.10;;;3.77;;
11125;SDS011;5617;54.046;10.676;2024-03-23T07:33:50;11.63;;;3.70;;
11125;SDS011;5617;54.046;10.676;2024-03-23T07:35:57;15.70;;;3.50;;
11125;SDS011;5617;54.046;10.676;2024-03-23T07:38:06;12.87;;;4.23;;
11125;SDS011;5617;54.046;10.676;2024-03-23T07:40:14;12.40;;;3.60;;
11125;SDS011;5617;54.046;10.676;2024-03-23T07:42:22;9.20;;;3.10;;
11125;SDS011;5617;54.046;10.676;2024-03-23T07:44:35;12.17;;;3.67;;
11125;SDS011;5617;54.046;10.676;2024-03-23T07:46:44;13.90;;;3.33;;
11125;SDS011;5617;54.046;10.676;2024-03-23T07:48:51;7.93;;;2.73;;
11125;SDS011;5617;54.046;10.676;2024-03-23T07:51:00;13.27;;;4.10;;
11125;SDS011;5617;54.046;10.676;2024-03-23T07:53:09;10.30;;;3.37;;
11125;SDS011;5617;54.046;10.676;2024-03-23T07:55:24;11.70;;;3.87;;
11125;SDS011;5617;54.046;10.676;2024-03-23T07:57:34;9.77;;;3.37;;
11125;SDS011;5617;54.046;10.676;2024-03-23T07:59:49;14.27;;;3.80;;
11125;SDS011;5617;54.046;10.676;2024-03-23T08:01:57;12.90;;;3.60;;
11125;SDS011;5617;54.046;10.676;2024-03-23T08:04:06;15.43;;;4.60;;
11125;SDS011;5617;54.046;10.676;2024-03-23T08:06:16;13.07;;;3.63;;
11125;SDS011;5617;54.046;10.676;2024-03-23T08:08:26;13.20;;;3.33;;
11125;SDS011;5617;54.046;10.676;2024-03-23T08:10:33;12.60;;;3.73;;
11125;SDS011;5617;54.046;10.676;2024-03-23T08:12:41;8.93;;;3.00;;
11125;SDS011;5617;54.046;10.676;2024-03-23T08:14:53;9.53;;;2.30;;
11125;SDS011;5617;54.046;10.676;2024-03-23T08:17:03;11.83;;;4.07;;
11125;SDS011;5617;54.046;10.676;2024-03-23T08:19:10;12.30;;;3.30;;
11125;SDS011;5617;54.046;10.676;2024-03-23T08:21:18;13.80;;;4.23;;
11125;SDS011;5617;54.046;10.676;2024-03-23T08:23:32;8.10;;;3.00;;
11125;SDS011;5617;54.046;10.676;2024-03-23T08:25:46;12.77;;;3.40;;
11125;SDS011;5617;54.046;10.676;2024-03-23T08:27:53;15.07;;;3.70;;
11125;SDS011;5617;54.046;10.676;2024-03-23T08:30:04;9.80;;;3.40;;
11125;SDS011;5617;54.046;10.676;2024-03-23T08:32:15;8.63;;;3.17;;
11125;SDS011;5617;54.046;10.676;2024-03-23T08:34:23;10.63;;;3.90;;
11125;SDS011;5617;54.046;10.676;2024-03-23T08:36:31;13.40;;;3.50;;
11125;SDS011;5617;54.046;10.676;2024-03-23T08:38:40;8.27;;;3.20;;
11125;SDS011;5617;54.046;10.676;2024-03-23T08:40:47;12.63;;;3.77;;
11125;SDS011;5617;54.046;10.676;2024-03-23T08:42:55;12.33;;;3.67;;
11125;SDS011;5617;54.046;10.676;2024-03-23T08:45:04;11.63;;;3.33;;
11125;SDS011;5617;54.046;10.676;2024-03-23T08:47:15;12.40;;;3.33;;
11125;SDS011;5617;54.046;10.676;2024-03-23T08:49:22;12.30;;;3.40;;
11125;SDS011;5617;54.046;10.676;2024-03-23T08:51:37;10.63;;;3.07;;
11125;SDS011;5617;54.046;10.676;2024-03-23T08:53:44;14.33;;;3.37;;
11125;SDS011;5617;54.046;10.676;2024-03-23T08:55:54;15.10;;;3.63;;
11125;SDS011;5617;54.046;10.676;2024-03-23T08:58:01;11.47;;;4.07;;
11125;SDS011;5617;54.046;10.676;2024-03-23T09:00:12;13.00;;;3.27;;
11125;SDS011;5617;54.046;10.676;2024-03-23T09:02:21;9.43;;;2.87;;
11125;SDS011;5617;54.046;10.676;2024-03-23T09:04:29;9.87;;;3.10;;
11125;SDS011;5617;54.046;10.676;2024-03-23T09:06:37;10.10;;;3.17;;
11125;SDS011;5617;54.046;10.676;2024-03-23T09:08:46;9.67;;;2.90;;
11125;SDS011;5617;54.046;10.676;2024-03-23T09:10:53;11.67;;;3.63;;
11125;SDS011;5617;54.046;10.676;2024-03-23T09:13:02;9.03;;;2.50;;
11125;SDS011;5617;54.046;10.676;2024-03-23T09:15:09;7.77;;;2.70;;
11125;SDS011;5617;54.046;10.676;2024-03-23T09:17:22;10.83;;;2.80;;
11125;SDS011;5617;54.046;10.676;2024-03-23T09:19:32;10.33;;;2.50;;
11125;SDS011;5617;54.046;10.676;2024-03-23T09:21:41;8.53;;;2.90;;
11125;SDS011;5617;54.046;10.676;2024-03-23T09:23:48;6.63;;;1.90;;
11125;SDS011;5617;54.046;10.676;2024-03-23T09:25:56;11.03;;;2.47;;
11125;SDS011;5617;54.046;10.676;2024-03-23T09:28:03;8.37;;;2.37;;
11125;SDS011;5617;54.046;10.676;2024-03-23T09:30:14;7.93;;;2.10;;
11125;SDS011;5617;54.046;10.676;2024-03-23T09:32:21;9.40;;;2.60;;
11125;SDS011;5617;54.046;10.676;2024-03-23T09:34:35;8.37;;;2.70;;
11125;SDS011;5617;54.046;10.676;2024-03-23T09:36:42;10.17;;;2.40;;
11125;SDS011;5617;54.046;10.676;2024-03-23T09:38:52;10.90;;;2.60;;
11125;SDS011;5617;54.046;10.676;2024-03-23T09:40:59;7.87;;;2.23;;
11125;SDS011;5617;54.046;10.676;2024-03-23T09:43:07;6.13;;;2.00;;
11125;SDS011;5617;54.046;10.676;2024-03-23T09:45:19;7.40;;;2.10;;
11125;SDS011;5617;54.046;10.676;2024-03-23T09:47:31;8.80;;;2.60;;
11125;SDS011;5617;54.046;10.676;2024-03-23T09:49:42;6.77;;;2.17;;
11125;SDS011;5617;54.046;10.676;2024-03-23T09:51:50;6.00;;;1.97;;
11125;SDS011;5617;54.046;10.676;2024-03-23T09:53:57;5.37;;;1.60;;
11125;SDS011;5617;54.046;10.676;2024-03-23T09:56:05;5.47;;;1.17;;
11125;SDS011;5617;54.046;10.676;2024-03-23T09:58:15;3.63;;;1.30;;
11125;SDS011;5617;54.046;10.676;2024-03-23T10:00:29;5.23;;;1.50;;
11125;SDS011;5617;54.046;10.676;2024-03-23T10:02:36;5.10;;;1.97;;
11125;SDS011;5617;54.046;10.676;2024-03-23T10:04:44;5.20;;;1.37;;
11125;SDS011;5617;54.046;10.676;2024-03-23T10:06:52;3.43;;;1.20;;
11125;SDS011;5617;54.046;10.676;2024-03-23T10:09:01;4.43;;;1.33;;
11125;SDS011;5617;54.046;10.676;2024-03-23T10:11:23;3.87;;;1.20;;
11125;SDS011;5617;54.046;10.676;2024-03-23T10:13:31;2.77;;;0.90;;
11125;SDS011;5617;54.046;10.676;2024-03-23T10:15:40;3.03;;;1.03;;
11125;SDS011;5617;54.046;10.676;2024-03-23T10:17:48;2.63;;;1.00;;
11125;SDS011;5617;54.046;10.676;2024-03-23T10:19:56;4.97;;;1.17;;
11125;SDS011;5617;54.046;10.676;2024-03-23T10:22:04;4.70;;;1.40;;
11125;SDS011;5617;54.046;10.676;2024-03-23T10:24:11;4.53;;;1.20;;
11125;SDS011;5617;54.046;10.676;2024-03-23T10:26:23;4.93;;;1.50;;
11125;SDS011;5617;54.046;10.676;2024-03-23T10:28:32;3.33;;;1.57;;
11125;SDS011;5617;54.046;10.676;2024-03-23T10:30:42;6.73;;;1.63;;
11125;SDS011;5617;54.046;10.676;2024-03-23T10:32:49;3.73;;;1.40;;
11125;SDS011;5617;54.046;10.676;2024-03-23T10:34:57;7.67;;;2.00;;
11125;SDS011;5617;54.046;10.676;2024-03-23T10:37:20;4.53;;;1.60;;
11125;SDS011;5617;54.046;10.676;2024-03-23T10:39:29;7.57;;;2.10;;
11125;SDS011;5617;54.046;10.676;2024-03-23T10:41:38;5.13;;;1.77;;
11125;SDS011;5617;54.046;10.676;2024-03-23T10:43:48;6.20;;;2.03;;
11125;SDS011;5617;54.046;10.676;2024-03-23T10:45:57;8.20;;;2.03;;
11125;SDS011;5617;54.046;10.676;2024-03-23T10:48:06;6.07;;;1.90;;
11125;SDS011;5617;54.046;10.676;2024-03-23T10:50:14;6.90;;;2.00;;
11125;SDS011;5617;54.046;10.676;2024-03-23T10:52:23;6.63;;;1.87;;
11125;SDS011;5617;54.046;10.676;2024-03-23T10:54:31;3.37;;;1.10;;
11125;SDS011;5617;54.046;10.676;2024-03-23T10:56:40;2.20;;;0.90;;
11125;SDS011;5617;54.046;10.676;2024-03-23T10:58:47;3.43;;;1.10;;
11125;SDS011;5617;54.046;10.676;2024-03-23T11:00:58;2.97;;;1.03;;
11125;SDS011;5617;54.046;10.676;2024-03-23T11:05:42;5.53;;;1.67;;
11125;SDS011;5617;54.046;10.676;2024-03-23T11:07:53;5.67;;;1.60;;
11125;SDS011;5617;54.046;10.676;2024-03-23T11:10:24;4.83;;;1.47;;
11125;SDS011;5617;54.046;10.676;2024-03-23T11:12:34;3.73;;;1.33;;
11125;SDS011;5617;54.046;10.676;2024-03-23T11:14:42;3.83;;;1.50;;
11125;SDS011;5617;54.046;10.676;2024-03-23T11:16:52;3.20;;;0.97;;
11125;SDS011;5617;54.046;10.676;2024-03-23T11:19:34;3.47;;;0.87;;
11125;SDS011;5617;54.046;10.676;2024-03-23T11:21:52;5.23;;;1.20;;
11125;SDS011;5617;54.046;10.676;2024-03-23T11:24:13;2.57;;;0.70;;
11125;SDS011;5617;54.046;10.676;2024-03-23T11:26:20;4.93;;;0.90;;
11125;SDS011;5617;54.046;10.676;2024-03-23T11:28:29;2.20;;;0.90;;
11125;SDS011;5617;54.046;10.676;2024-03-23T11:30:39;3.60;;;0.57;;
11125;SDS011;5617;54.046;10.676;2024-03-23T11:32:49;1.43;;;0.50;;
11125;SDS011;5617;54.046;10.676;2024-03-23T11:35:00;3.93;;;1.03;;
11125;SDS011;5617;54.046;10.676;2024-03-23T11:37:19;3.90;;;1.10;;
11125;SDS011;5617;54.046;10.676;2024-03-23T11:39:30;3.57;;;1.10;;
11125;SDS011;5617;54.046;10.676;2024-03-23T11:41:44;4.97;;;1.10;;
11125;SDS011;5617;54.046;10.676;2024-03-23T11:43:57;5.20;;;1.10;;
11125;SDS011;5617;54.046;10.676;2024-03-23T11:46:05;3.60;;;1.30;;
11125;SDS011;5617;54.046;10.676;2024-03-23T11:48:15;4.70;;;1.60;;
11125;SDS011;5617;54.046;10.676;2024-03-23T11:50:28;4.70;;;1.00;;
11125;SDS011;5617;54.046;10.676;2024-03-23T11:52:38;4.53;;;1.20;;
11125;SDS011;5617;54.046;10.676;2024-03-23T11:55:02;3.83;;;1.00;;
11125;SDS011;5617;54.046;10.676;2024-03-23T11:57:10;4.00;;;1.23;;
11125;SDS011;5617;54.046;10.676;2024-03-23T11:59:29;4.13;;;1.00;;
11125;SDS011;5617;54.046;10.676;2024-03-23T12:01:37;3.97;;;1.10;;
11125;SDS011;5617;54.046;10.676;2024-03-23T12:03:47;2.10;;;0.80;;
11125;SDS011;5617;54.046;10.676;2024-03-23T12:05:55;2.23;;;0.70;;
11125;SDS011;5617;54.046;10.676;2024-03-23T12:08:16;3.77;;;1.10;;
11125;SDS011;5617;54.046;10.676;2024-03-23T12:10:24;4.40;;;1.00;;
11125;SDS011;5617;54.046;10.676;2024-03-23T12:12:33;3.90;;;1.00;;
11125;SDS011;5617;54.046;10.676;2024-03-23T12:14:41;4.57;;;1.20;;
11125;SDS011;5617;54.046;10.676;2024-03-23T12:16:54;3.17;;;1.13;;
11125;SDS011;5617;54.046;10.676;2024-03-23T12:19:05;3.23;;;0.90;;
11125;SDS011;5617;54.046;10.676;2024-03-23T12:21:14;3.83;;;1.27;;
11125;SDS011;5617;54.046;10.676;2024-03-23T12:23:21;2.13;;;0.80;;
11125;SDS011;5617;54.046;10.676;2024-03-23T12:25:29;1.87;;;0.80;;
11125;SDS011;5617;54.046;10.676;2024-03-23T12:27:36;2.00;;;0.43;;
11125;SDS011;5617;54.046;10.676;2024-03-23T12:29:47;4.17;;;1.17;;
11125;SDS011;5617;54.046;10.676;2024-03-23T12:35:16;2.87;;;1.07;;
11125;SDS011;5617;54.046;10.676;2024-03-23T12:37:24;4.67;;;0.80;;
11125;SDS011;5617;54.046;10.676;2024-03-23T12:39:31;4.20;;;1.00;;
11125;SDS011;5617;54.046;10.676;2024-03-23T12:41:41;3.27;;;1.20;;
11125;SDS011;5617;54.046;10.676;2024-03-23T12:43:50;4.77;;;1.10;;
11125;SDS011;5617;54.046;10.676;2024-03-23T12:46:01;5.73;;;1.33;;
11125;SDS011;5617;54.046;10.676;2024-03-23T12:48:09;6.03;;;1.23;;
11125;SDS011;5617;54.046;10.676;2024-03-23T12:50:18;3.63;;;1.10;;
11125;SDS011;5617;54.046;10.676;2024-03-23T12:52:26;6.87;;;1.30;;
11125;SDS011;5617;54.046;10.676;2024-03-23T12:54:34;6.37;;;1.10;;
11125;SDS011;5617;54.046;10.676;2024-03-23T12:56:43;6.43;;;1.40;;
11125;SDS011;5617;54.046;10.676;2024-03-23T12:58:59;3.27;;;1.23;;
11125;SDS011;5617;54.046;10.676;2024-03-23T13:01:07;4.67;;;1.23;;
11125;SDS011;5617;54.046;10.676;2024-03-23T13:03:17;2.23;;;0.80;;
11125;SDS011;5617;54.046;10.676;2024-03-23T13:05:32;2.73;;;0.80;;
11125;SDS011;5617;54.046;10.676;2024-03-23T13:07:39;1.90;;;0.60;;
11125;SDS011;5617;54.046;10.676;2024-03-23T13:09:49;1.00;;;0.50;;
11125;SDS011;5617;54.046;10.676;2024-03-23T13:11:56;1.27;;;0.50;;
11125;SDS011;5617;54.046;10.676;2024-03-23T13:14:04;1.97;;;0.60;;
11125;SDS011;5617;54.046;10.676;2024-03-23T13:16:12;1.60;;;0.60;;
11125;SDS011;5617;54.046;10.676;2024-03-23T13:18:20;2.07;;;0.80;;
11125;SDS011;5617;54.046;10.676;2024-03-23T13:20:27;1.97;;;0.53;;
11125;SDS011;5617;54.046;10.676;2024-03-23T13:22:38;1.43;;;0.67;;
11125;SDS011;5617;54.046;10.676;2024-03-23T13:24:46;0.80;;;0.40;;
11125;SDS011;5617;54.046;10.676;2024-03-23T13:26:55;1.37;;;0.60;;
11125;SDS011;5617;54.046;10.676;2024-03-23T13:29:02;2.70;;;0.30;;
11125;SDS011;5617;54.046;10.676;2024-03-23T13:31:10;2.03;;;0.63;;
11125;SDS011;5617;54.046;10.676;2024-03-23T13:33:18;5.50;;;0.70;;
11125;SDS011;5617;54.046;10.676;2024-03-23T13:35:31;2.50;;;0.90;;
11125;SDS011;5617;54.046;10.676;2024-03-23T13:37:38;3.37;;;0.70;;
11125;SDS011;5617;54.046;10.676;2024-03-23T13:39:47;4.10;;;0.93;;
11125;SDS011;5617;54.046;10.676;2024-03-23T13:41:55;1.17;;;0.43;;
11125;SDS011;5617;54.046;10.676;2024-03-23T13:44:03;3.77;;;0.80;;
11125;SDS011;5617;54.046;10.676;2024-03-23T13:46:11;5.77;;;1.10;;
11125;SDS011;5617;54.046;10.676;2024-03-23T13:48:19;2.83;;;0.87;;
11125;SDS011;5617;54.046;10.676;2024-03-23T13:50:27;1.63;;;0.83;;
11125;SDS011;5617;54.046;10.676;2024-03-23T13:52:37;2.77;;;0.93;;